KAIA/AIA METAR and TAF weather

Enter ICAO airport designator
Station Type Date Time Source
KAIA METAR 2022/12/08 13:53 UTC NOAA

KAIA 081353Z AUTO 14003KT 10SM SCT070 OVC085 M07/M09 A3002 RMK AO2 SLP203 T10671089


Station Type Date Time Source
KAIA Decoded METAR 2022/12/08 13:53 UTC NOAA

ALLIANCE MUNICIPAL AIRPORT, NE, United States (KAIA) 42-03N 102-48W 1196M
Dec 08, 2022 - 08:53 AM EST / 2022.12.08 1353 UTC
Wind: from the SE (140 degrees) at 3 MPH (3 KT):0
Visibility: 10 mile(s):0
Sky conditions: overcast
Temperature: 19.9 F (-6.7 C)
Dew Point: 16.0 F (-8.9 C)
Relative Humidity: 84%
Pressure (altimeter): 30.02 in. Hg (1016 hPa)
ob: KAIA 081353Z AUTO 14003KT 10SM SCT070 OVC085 M07/M09 A3002 RMK AO2 SLP203 T10671089
cycle: 14

Station Type Date Time Source
KAIA TAF 2022/12/08 12:42 UTC NOAA

TAF KAIA 081140Z 0812/0912 16007KT P6SM BKN080
FM081500 27009KT 5SM -SHSN OVC030
FM081600 30012G20KT 2SM -SN OVC015
FM082100 30015G25KT 4SM -SHSN OVC035
FM090000 30010KT P6SM BKN080

Example: see airport list